createdAt,value
2019-03-06T00:04:02.244Z,73.32
2019-03-06T00:09:07.059Z,73.71
2019-03-06T00:14:09.782Z,74.08
2019-03-06T00:19:12.512Z,74.20
2019-03-06T00:24:15.237Z,74.27
2019-03-06T00:29:18.009Z,74.38
2019-03-06T00:34:20.724Z,74.39
2019-03-06T00:39:24.595Z,74.92
2019-03-06T00:44:27.303Z,75.49
2019-03-06T00:49:30.038Z,75.86
2019-03-06T00:54:32.776Z,75.80
2019-03-06T00:59:35.514Z,75.61
2019-03-06T01:04:38.426Z,75.66
2019-03-06T01:09:41.143Z,75.66
2019-03-06T01:14:44.061Z,75.39
2019-03-06T01:19:46.771Z,75.29
2019-03-06T01:24:49.520Z,75.08
2019-03-06T01:29:52.689Z,74.94
2019-03-06T01:35:15.052Z,74.92
2019-03-06T01:40:29.652Z,75.12
2019-03-06T01:45:32.368Z,75.58
2019-03-06T01:50:35.090Z,75.77
2019-03-06T01:55:37.828Z,75.45
2019-03-06T02:00:40.849Z,75.37
2019-03-06T02:05:43.615Z,75.31
2019-03-06T02:10:46.537Z,75.17
2019-03-06T04:02:10.110Z,72.91
2019-03-06T04:07:12.832Z,72.64
2019-03-06T04:12:15.857Z,72.15
2019-03-06T04:17:18.537Z,71.79
2019-03-06T04:22:21.233Z,71.80
2019-03-06T04:27:23.966Z,71.52
2019-03-06T04:32:26.671Z,71.51
2019-03-06T04:37:29.412Z,71.68
2019-03-06T04:42:32.100Z,72.19
2019-03-06T04:47:34.788Z,72.72
2019-03-06T04:52:37.520Z,73.37
2019-03-06T04:57:40.256Z,73.58
2019-03-06T05:02:42.931Z,73.86
2019-03-06T05:07:45.635Z,73.97
2019-03-06T05:12:48.320Z,73.94
2019-03-06T05:18:10.966Z,74.10
2019-03-06T05:23:13.640Z,74.22
2019-03-06T05:28:16.339Z,74.37
2019-03-06T05:33:19.125Z,74.51
2019-03-06T05:38:34.269Z,74.95
2019-03-06T05:43:36.967Z,74.86
2019-03-06T05:48:39.648Z,74.73
2019-03-06T05:53:42.349Z,74.81
2019-03-06T05:58:45.057Z,75.09
2019-03-06T06:03:47.769Z,75.20
2019-03-06T06:08:50.461Z,75.40
2019-03-06T06:13:53.155Z,75.39
2019-03-06T06:18:57.000Z,75.29
2019-03-06T06:24:03.232Z,75.39
2019-03-06T06:29:05.926Z,75.27
2019-03-06T06:34:08.664Z,75.11
2019-03-06T06:39:11.374Z,74.92
2019-03-06T06:44:14.064Z,75.18
2019-03-06T06:49:16.955Z,75.21
2019-03-06T06:54:36.629Z,75.22
2019-03-06T07:00:27.697Z,75.12
2019-03-06T07:05:47.808Z,74.87
2019-03-06T07:11:24.945Z,75.16
2019-03-06T07:16:52.869Z,74.76
2019-03-06T07:22:04.544Z,74.84
2019-03-06T07:27:26.869Z,74.79
2019-03-06T07:32:40.474Z,74.74
2019-03-06T07:38:01.272Z,74.42
2019-03-06T07:43:11.746Z,74.14
2019-03-06T07:48:36.767Z,73.98
2019-03-06T07:54:10.951Z,73.80
2019-03-06T07:59:13.716Z,73.35
2019-03-06T08:04:17.103Z,73.56
2019-03-06T08:09:20.319Z,73.56
2019-03-06T08:14:42.460Z,73.41
2019-03-06T08:20:07.615Z,73.06
2019-03-06T08:25:25.248Z,72.97
2019-03-06T08:30:29.862Z,72.00
2019-03-06T08:35:32.576Z,71.74
2019-03-06T08:40:35.300Z,71.37
2019-03-06T08:45:52.392Z,71.51
2019-03-06T08:51:01.143Z,71.14
2019-03-06T08:56:24.020Z,70.98
2019-03-06T09:01:46.675Z,70.42
2019-03-06T09:07:10.816Z,69.80
2019-03-06T09:12:28.774Z,69.76
2019-03-06T09:17:38.740Z,69.00
2019-03-06T09:23:01.081Z,68.29
2019-03-06T09:28:11.851Z,68.23
2019-03-06T09:33:20.178Z,67.58
2019-03-06T09:38:57.377Z,67.25
2019-03-06T09:44:18.955Z,66.47
2019-03-06T09:49:30.940Z,66.06
2019-03-06T09:54:52.473Z,65.86
2019-03-06T10:00:23.509Z,65.79
2019-03-06T10:05:41.393Z,65.31
2019-03-06T10:10:58.760Z,65.52
2019-03-06T10:16:15.654Z,65.25
2019-03-06T10:21:18.364Z,64.82
2019-03-06T10:26:21.064Z,64.43
2019-03-06T10:31:23.795Z,63.04
2019-03-06T10:36:26.603Z,62.61
2019-03-06T10:41:29.424Z,62.25
2019-03-06T10:46:32.209Z,62.52
2019-03-06T10:51:34.909Z,62.09
2019-03-06T10:56:37.700Z,62.27
2019-03-06T11:01:40.613Z,62.09
2019-03-06T11:06:43.419Z,60.96
2019-03-06T11:11:46.218Z,59.86
2019-03-06T11:16:48.988Z,59.82
2019-03-06T11:21:52.009Z,58.99
2019-03-06T11:26:55.015Z,57.73
2019-03-06T11:31:57.732Z,58.18
2019-03-06T11:37:00.778Z,57.36
2019-03-06T11:42:04.326Z,57.66
2019-03-06T11:47:07.129Z,56.69
2019-03-06T11:52:10.035Z,56.89
2019-03-06T11:57:13.168Z,56.83
2019-03-06T12:02:16.967Z,56.28
2019-03-06T12:07:20.200Z,55.84
2019-03-06T12:12:23.042Z,55.02
2019-03-06T12:17:25.917Z,54.45
2019-03-06T12:22:28.857Z,54.81
2019-03-06T12:27:31.812Z,54.80
2019-03-06T12:32:36.657Z,53.80
2019-03-06T12:37:46.732Z,54.06
2019-03-06T12:42:44.283Z,54.09
2019-03-06T12:47:55.487Z,54.42
2019-03-06T12:52:53.325Z,54.06
2019-03-06T12:57:59.421Z,53.25
2019-03-06T13:03:01.568Z,53.86
2019-03-06T13:08:04.264Z,53.72
2019-03-06T13:13:06.994Z,53.82
2019-03-06T13:18:09.839Z,53.85
2019-03-06T13:23:13.432Z,53.83
2019-03-06T13:28:16.187Z,54.13
2019-03-06T13:33:29.514Z,53.95
2019-03-06T13:38:32.274Z,53.21
2019-03-06T13:43:34.968Z,52.32
2019-03-06T13:48:37.760Z,52.15
2019-03-06T13:53:40.661Z,52.13
2019-03-06T13:58:43.664Z,52.21
2019-03-06T14:03:46.439Z,52.29
2019-03-06T14:08:49.259Z,53.14
2019-03-06T14:13:52.068Z,53.84
2019-03-06T14:24:11.543Z,53.15
2019-03-06T14:29:14.439Z,53.37
2019-03-06T14:34:17.171Z,52.87
2019-03-06T14:39:26.643Z,52.86
2019-03-06T14:44:29.452Z,52.86
2019-03-06T14:49:32.184Z,53.18
2019-03-06T14:54:34.991Z,53.06
2019-03-06T14:59:37.774Z,53.51
2019-03-06T15:04:40.467Z,52.98
2019-03-06T15:09:43.170Z,53.21
2019-03-06T15:14:45.863Z,53.01
2019-03-06T15:19:48.594Z,53.43
2019-03-06T15:24:51.337Z,53.37
2019-03-06T15:29:54.331Z,53.95
2019-03-06T15:34:57.043Z,54.22
2019-03-06T15:39:59.869Z,54.13
2019-03-06T15:45:02.671Z,54.16
2019-03-06T15:50:09.278Z,54.30
2019-03-06T15:55:12.405Z,54.57
2019-03-06T16:00:27.632Z,54.70
2019-03-06T16:05:30.756Z,54.87
2019-03-06T16:10:33.557Z,55.10
2019-03-06T16:15:36.673Z,55.17
2019-03-06T16:20:39.571Z,55.73
2019-03-06T16:25:42.431Z,56.47
2019-03-06T16:30:45.144Z,57.13
2019-03-06T16:35:48.026Z,57.00
2019-03-06T16:40:50.981Z,57.06
2019-03-06T16:45:54.255Z,56.84
2019-03-06T16:50:56.955Z,57.01
2019-03-06T16:55:59.694Z,57.59
2019-03-06T17:01:03.019Z,57.78
2019-03-06T17:06:06.022Z,58.06
2019-03-06T17:11:10.980Z,58.10
2019-03-06T17:16:14.218Z,58.51
2019-03-06T17:21:17.006Z,58.39
2019-03-06T17:26:20.723Z,57.77
2019-03-06T17:31:23.606Z,57.29
2019-03-06T17:36:26.332Z,57.03
2019-03-06T17:41:29.164Z,57.31
2019-03-06T17:46:32.002Z,57.33
2019-03-06T17:51:34.773Z,57.40
2019-03-06T17:56:37.491Z,57.71
2019-03-06T18:01:40.189Z,57.81
2019-03-06T18:06:43.087Z,57.44
2019-03-06T18:11:46.155Z,57.60
2019-03-06T18:16:48.972Z,57.10
2019-03-06T18:21:51.948Z,56.86
2019-03-06T18:26:54.788Z,56.68
2019-03-06T18:31:57.589Z,57.01
2019-03-06T18:37:00.337Z,56.69
2019-03-06T18:42:03.550Z,56.49
2019-03-06T18:47:06.247Z,56.31
2019-03-06T18:52:08.950Z,55.76
2019-03-06T18:57:13.308Z,55.55
2019-03-06T19:02:16.343Z,55.54
2019-03-06T19:07:19.060Z,55.55
2019-03-06T19:12:21.809Z,55.65
2019-03-06T19:17:24.562Z,55.39
2019-03-06T19:22:27.335Z,55.16
2019-03-06T19:27:30.210Z,54.92
2019-03-06T19:32:32.917Z,54.98
2019-03-06T19:37:35.629Z,54.94
2019-03-06T19:42:38.337Z,55.11
2019-03-06T19:47:41.086Z,55.58
2019-03-06T19:52:43.923Z,55.80
2019-03-06T19:57:58.493Z,56.16
2019-03-06T20:03:01.620Z,56.72
2019-03-06T20:08:08.278Z,57.09
2019-03-06T20:13:11.417Z,57.58
2019-03-06T20:18:14.121Z,57.93
2019-03-06T20:23:17.120Z,58.80
2019-03-06T20:28:19.923Z,59.54
2019-03-06T20:33:22.752Z,60.48
2019-03-06T20:38:25.506Z,61.06
2019-03-06T20:43:28.222Z,61.20
2019-03-06T20:48:30.960Z,61.44
2019-03-06T20:53:33.709Z,61.66
2019-03-06T20:58:36.448Z,61.86
2019-03-06T21:03:39.199Z,62.10
2019-03-06T21:08:42.774Z,62.41
2019-03-06T21:13:45.519Z,62.57
2019-03-06T21:18:51.620Z,62.75
2019-03-06T21:23:57.061Z,62.86
2019-03-06T21:28:59.919Z,63.62
2019-03-06T21:34:02.740Z,63.91
2019-03-06T21:39:20.555Z,64.15
2019-03-06T21:44:23.363Z,64.38
2019-03-06T21:49:26.343Z,64.75
2019-03-06T21:54:29.340Z,64.66
2019-03-06T21:59:32.175Z,65.10
2019-03-06T22:04:34.990Z,64.59
2019-03-06T22:09:37.727Z,65.27
2019-03-06T22:14:40.471Z,65.16
2019-03-06T22:19:43.191Z,64.96
2019-03-06T22:24:45.907Z,64.98
2019-03-06T22:29:48.737Z,65.22
2019-03-06T22:34:52.205Z,65.36
2019-03-06T22:39:55.605Z,65.87
2019-03-06T22:44:58.519Z,66.92
2019-03-06T22:50:01.331Z,67.36
2019-03-06T22:55:04.672Z,68.17
2019-03-06T23:00:22.209Z,68.65
2019-03-06T23:05:26.065Z,69.52
2019-03-06T23:10:28.791Z,70.14
2019-03-06T23:15:31.625Z,70.99
2019-03-06T23:20:34.660Z,71.12
2019-03-06T23:25:37.400Z,70.87
2019-03-06T23:30:40.271Z,71.49
2019-03-06T23:35:42.992Z,71.65
2019-03-06T23:40:45.821Z,71.38
2019-03-06T23:45:48.525Z,71.16
2019-03-06T23:50:51.259Z,70.95
2019-03-06T23:55:53.969Z,70.66
